createdAt,value
2022-11-05T00:00:18.613Z,99689.94
2022-11-05T00:03:04.901Z,99682.16
2022-11-05T00:05:50.852Z,99693.53
2022-11-05T00:08:37.256Z,99698.41
2022-11-05T00:11:04.829Z,99705.25
2022-11-05T00:13:51.636Z,99700.72
2022-11-05T00:16:21.593Z,99689.84
2022-11-05T00:19:06.534Z,99711.28
2022-11-05T00:21:53.570Z,99716.31
2022-11-05T00:24:40.494Z,99703.13
2022-11-05T00:27:08.345Z,99711.91
2022-11-05T00:29:36.643Z,99710.50
2022-11-05T00:32:04.266Z,99713.16
2022-11-05T00:34:31.888Z,99716.88
2022-11-05T00:36:59.659Z,99695.72
2022-11-05T00:39:27.390Z,99695.31
2022-11-05T00:42:13.564Z,99686.25
2022-11-05T00:44:59.796Z,99707.56
2022-11-05T00:47:46.271Z,99710.50
2022-11-05T00:50:14.334Z,99703.63
2022-11-05T00:52:57.041Z,99701.22
2022-11-05T00:55:28.478Z,99704.06
2022-11-05T00:57:56.849Z,99698.97
2022-11-05T01:00:26.546Z,99704.44
2022-11-05T01:02:57.564Z,99707.41
2022-11-05T01:05:25.275Z,99708.47
2022-11-05T01:07:53.413Z,99697.81
2022-11-05T01:10:31.601Z,99701.44
2022-11-05T01:12:59.304Z,99702.91
2022-11-05T01:15:27.040Z,99699.22
2022-11-05T01:17:54.607Z,99714.53
2022-11-05T01:20:22.182Z,99711.25
2022-11-05T01:22:49.994Z,99703.09
2022-11-05T01:25:17.516Z,99682.78
2022-11-05T01:27:45.126Z,99700.03
2022-11-05T01:30:13.405Z,99696.75
2022-11-05T01:32:41.015Z,99695.78
2022-11-05T01:35:10.881Z,99688.91
2022-11-05T01:37:39.767Z,99690.41
2022-11-05T01:40:08.879Z,99681.91
2022-11-05T01:42:36.564Z,99687.63
2022-11-05T01:45:07.248Z,99696.91
2022-11-05T01:47:49.901Z,99701.22
2022-11-05T01:50:37.629Z,99696.91
2022-11-05T01:53:17.773Z,99701.72
2022-11-05T01:55:53.748Z,99713.50
2022-11-05T01:58:23.115Z,99708.00
2022-11-05T02:00:51.265Z,99707.09
2022-11-05T02:03:19.462Z,99715.22
2022-11-05T02:05:48.420Z,99717.44
2022-11-05T02:08:22.708Z,99723.00
2022-11-05T02:10:50.801Z,99714.16
2022-11-05T02:13:18.307Z,99714.03
2022-11-05T02:15:59.483Z,99708.97
2022-11-05T02:18:52.796Z,99686.63
2022-11-05T02:21:51.928Z,99704.09
2022-11-05T02:24:30.842Z,99700.62
2022-11-05T02:27:16.603Z,99699.97
2022-11-05T02:29:50.228Z,99697.47
2022-11-05T02:32:32.374Z,99692.38
2022-11-05T02:35:34.212Z,99689.47
2022-11-05T02:38:13.747Z,99691.84
2022-11-05T02:41:01.942Z,99692.09
2022-11-05T02:43:41.654Z,99694.00
2022-11-05T02:46:37.052Z,99700.66
2022-11-05T02:49:09.190Z,99692.50
2022-11-05T02:51:44.230Z,99711.41
2022-11-05T02:54:18.977Z,99720.69
2022-11-05T02:56:48.685Z,99723.97
2022-11-05T02:59:16.260Z,99725.13
2022-11-05T03:01:46.047Z,99733.78
2022-11-05T03:04:17.005Z,99741.00
2022-11-05T03:07:15.558Z,99732.19
2022-11-05T03:10:17.675Z,99739.03
2022-11-05T03:13:12.454Z,99765.06
2022-11-05T03:16:00.267Z,99773.06
2022-11-05T03:18:47.818Z,99763.94
2022-11-05T03:21:22.357Z,99772.87
2022-11-05T03:23:56.451Z,99775.78
2022-11-05T03:26:33.826Z,99773.16
2022-11-05T03:29:06.721Z,99775.50
2022-11-05T03:31:35.639Z,99775.50
2022-11-05T03:34:04.918Z,99769.03
2022-11-05T03:36:37.752Z,99769.78
2022-11-05T03:39:09.037Z,99789.09
2022-11-05T03:41:58.675Z,99767.00
2022-11-05T03:44:30.063Z,99782.56
2022-11-05T03:47:04.553Z,99775.00
2022-11-05T03:49:36.675Z,99786.53
2022-11-05T03:52:19.241Z,99791.16
2022-11-05T03:54:47.254Z,99784.41
2022-11-05T03:57:17.367Z,99771.31
2022-11-05T03:59:47.146Z,99770.09
2022-11-05T04:02:17.262Z,99773.94
2022-11-05T04:04:45.395Z,99769.84
2022-11-05T04:07:31.600Z,99771.41
2022-11-05T04:10:18.125Z,99768.38
2022-11-05T04:13:04.398Z,99762.09
2022-11-05T04:15:52.061Z,99751.69
2022-11-05T04:18:19.665Z,99748.56
2022-11-05T04:21:06.135Z,99773.19
2022-11-05T04:23:52.588Z,99778.84
2022-11-05T04:26:23.515Z,99788.00
2022-11-05T04:29:10.375Z,99781.09
2022-11-05T04:31:38.508Z,99792.12
2022-11-05T04:34:06.146Z,99801.00
2022-11-05T04:36:34.034Z,99801.34
2022-11-05T04:39:01.982Z,99780.22
2022-11-05T04:41:29.516Z,99798.28
2022-11-05T04:43:56.944Z,99805.50
2022-11-05T04:46:24.685Z,99795.84
2022-11-05T04:48:52.266Z,99791.53
2022-11-05T04:51:19.812Z,99784.22
2022-11-05T04:53:47.588Z,99788.37
2022-11-05T04:56:18.720Z,99797.88
2022-11-05T04:58:46.436Z,99792.78
2022-11-05T05:01:16.188Z,99801.44
2022-11-05T05:03:43.996Z,99800.50
2022-11-05T05:06:11.516Z,99798.13
2022-11-05T05:08:39.397Z,99813.69
2022-11-05T05:11:09.342Z,99809.59
2022-11-05T05:13:36.942Z,99821.88
2022-11-05T05:16:07.200Z,99839.13
2022-11-05T05:18:34.781Z,99828.75
2022-11-05T05:21:35.382Z,99840.91
2022-11-05T05:24:03.674Z,99840.81
2022-11-05T05:26:31.317Z,99844.22
2022-11-05T05:28:59.138Z,99843.28
2022-11-05T05:31:26.915Z,99850.88
2022-11-05T05:33:54.877Z,99828.75
2022-11-05T05:36:23.518Z,99856.09
2022-11-05T05:38:51.564Z,99856.16
2022-11-05T05:41:19.479Z,99858.88
2022-11-05T05:43:46.974Z,99853.50
2022-11-05T05:46:16.950Z,99863.03
2022-11-05T05:48:49.514Z,99868.19
2022-11-05T05:51:18.695Z,99854.34
2022-11-05T05:53:46.250Z,99858.88
2022-11-05T05:56:19.363Z,99842.78
2022-11-05T05:58:47.515Z,99874.53
2022-11-05T06:01:19.359Z,99876.31
2022-11-05T06:03:48.658Z,99860.25
2022-11-05T06:06:19.836Z,99877.63
2022-11-05T06:08:47.977Z,99880.09
2022-11-05T06:11:15.474Z,99883.72
2022-11-05T06:13:42.940Z,99899.28
2022-11-05T06:16:10.709Z,99905.38
2022-11-05T06:18:38.409Z,99899.69
2022-11-05T06:21:08.417Z,99906.38
2022-11-05T06:23:37.423Z,99898.50
2022-11-05T06:26:07.537Z,99902.63
2022-11-05T06:28:35.291Z,99909.31
2022-11-05T06:31:03.312Z,99905.75
2022-11-05T06:33:31.099Z,99907.44
2022-11-05T06:35:59.995Z,99913.72
2022-11-05T06:38:29.311Z,99915.50
2022-11-05T06:41:01.646Z,99917.31
2022-11-05T06:43:32.288Z,99923.41
2022-11-05T06:46:01.356Z,99912.53
2022-11-05T06:48:29.495Z,99925.97
2022-11-05T06:50:57.231Z,99928.59
2022-11-05T06:53:24.911Z,99927.75
2022-11-05T06:55:52.497Z,99932.22
2022-11-05T06:58:20.486Z,99936.69
2022-11-05T07:00:48.356Z,99935.75
2022-11-05T07:03:16.033Z,99940.41
2022-11-05T07:05:45.825Z,99924.84
2022-11-05T07:08:13.523Z,99942.00
2022-11-05T07:10:41.086Z,99932.06
2022-11-05T07:13:09.177Z,99950.94
2022-11-05T07:15:37.426Z,99951.06
2022-11-05T07:18:07.533Z,99955.41
2022-11-05T07:20:35.840Z,99956.41
2022-11-05T07:23:10.678Z,99957.19
2022-11-05T07:25:39.240Z,99953.78
2022-11-05T07:28:06.928Z,99953.69
2022-11-05T07:30:35.350Z,99943.03
2022-11-05T07:33:03.746Z,99961.03
2022-11-05T07:35:31.309Z,99961.31
2022-11-05T07:37:58.841Z,99960.22
2022-11-05T07:40:28.348Z,99966.62
2022-11-05T07:43:01.142Z,99964.16
2022-11-05T07:45:31.250Z,99974.56
2022-11-05T07:48:01.082Z,99971.88
2022-11-05T07:50:31.968Z,99979.03
2022-11-05T07:53:03.851Z,99974.00
2022-11-05T07:55:31.923Z,99978.44
2022-11-05T07:57:59.378Z,99971.66
2022-11-05T08:00:27.571Z,99969.81
2022-11-05T08:03:20.011Z,99969.97
2022-11-05T08:05:48.065Z,99966.38
2022-11-05T08:08:18.083Z,99982.22
2022-11-05T08:10:46.186Z,99976.91
2022-11-05T08:13:14.512Z,99972.72
2022-11-05T08:15:43.317Z,99969.25
2022-11-05T08:18:15.683Z,99979.81
2022-11-05T08:20:44.255Z,99969.97
2022-11-05T08:23:12.251Z,99982.22
2022-11-05T08:25:40.810Z,99980.44
2022-11-05T08:28:11.555Z,99980.44
2022-11-05T08:30:39.118Z,99964.31
2022-11-05T08:33:12.159Z,99973.03
2022-11-05T08:35:40.548Z,99977.34
2022-11-05T08:38:11.286Z,99986.81
2022-11-05T08:40:38.825Z,99984.88
2022-11-05T08:43:07.601Z,99990.12
2022-11-05T08:45:38.242Z,99990.06
2022-11-05T08:48:11.623Z,99988.53
2022-11-05T08:50:39.423Z,99994.03
2022-11-05T08:53:08.599Z,100000.97
2022-11-05T08:55:36.684Z,99994.81
2022-11-05T08:58:06.766Z,100003.53
2022-11-05T09:00:36.748Z,100006.06
2022-11-05T09:03:06.372Z,99995.19
2022-11-05T09:05:37.906Z,100010.56
2022-11-05T09:08:06.638Z,100006.78
2022-11-05T09:10:35.049Z,100009.41
2022-11-05T09:13:02.669Z,99999.22
2022-11-05T09:15:30.853Z,100008.62
2022-11-05T09:17:58.623Z,100015.22
2022-11-05T09:20:26.412Z,100004.25
2022-11-05T09:22:54.045Z,100024.78
2022-11-05T09:25:21.824Z,100015.22
2022-11-05T09:27:49.598Z,100020.16
2022-11-05T09:30:18.890Z,100026.09
2022-11-05T09:32:46.829Z,100014.19
2022-11-05T09:35:14.258Z,100024.81
2022-11-05T09:37:41.785Z,100033.31
2022-11-05T09:40:15.948Z,100039.34
2022-11-05T09:42:46.967Z,100023.25
2022-11-05T09:45:20.527Z,100021.34
2022-11-05T09:47:59.875Z,100043.78
2022-11-05T09:50:32.432Z,100039.25
2022-11-05T09:53:04.119Z,100040.19
2022-11-05T09:55:41.135Z,100035.16
2022-11-05T09:58:23.275Z,100043.75
2022-11-05T10:00:55.337Z,100032.22
2022-11-05T10:03:24.309Z,100035.41
2022-11-05T10:05:52.490Z,100031.03
2022-11-05T10:08:32.574Z,100029.41
2022-11-05T10:11:17.357Z,100026.72
2022-11-05T10:13:48.042Z,100036.75
2022-11-05T10:16:24.813Z,100042.00
2022-11-05T10:18:59.174Z,100048.97
2022-11-05T10:21:51.512Z,100046.72
2022-11-05T10:24:19.753Z,100047.28
2022-11-05T10:26:51.009Z,100040.41
2022-11-05T10:29:29.739Z,100061.41
2022-11-05T10:31:59.855Z,100057.00
2022-11-05T10:34:36.227Z,100058.84
2022-11-05T10:37:04.408Z,100052.69
2022-11-05T10:39:32.783Z,100061.09
2022-11-05T10:42:27.681Z,100065.34
2022-11-05T10:45:13.686Z,100067.13
2022-11-05T10:47:50.135Z,100066.19
2022-11-05T10:50:24.678Z,100071.19
2022-11-05T10:52:52.024Z,100070.31
2022-11-05T10:55:25.523Z,100054.78
2022-11-05T10:57:53.276Z,100054.72
2022-11-05T11:00:24.249Z,100051.84
2022-11-05T11:02:58.183Z,100055.62
2022-11-05T11:05:30.381Z,100062.12
2022-11-05T11:08:01.273Z,100065.00
2022-11-05T11:10:31.694Z,100067.06
2022-11-05T11:12:59.380Z,100064.75
2022-11-05T11:15:29.580Z,100050.53
2022-11-05T11:17:57.317Z,100053.63
2022-11-05T11:20:28.924Z,100066.22
2022-11-05T11:23:07.492Z,100076.62
2022-11-05T11:25:41.469Z,100078.66
2022-11-05T11:28:18.203Z,100080.19
2022-11-05T11:30:51.599Z,100083.25
2022-11-05T11:33:22.985Z,100079.66
2022-11-05T11:35:50.449Z,100068.09
2022-11-05T11:38:18.398Z,100090.31
2022-11-05T11:40:46.200Z,100090.38
2022-11-05T11:43:34.704Z,100092.16
2022-11-05T11:46:07.754Z,100083.12
2022-11-05T11:48:40.469Z,100088.03
2022-11-05T11:51:36.713Z,100082.97
2022-11-05T11:54:05.186Z,100094.69
2022-11-05T11:56:46.770Z,100101.63
2022-11-05T11:59:46.890Z,100103.91
2022-11-05T12:02:32.269Z,100108.31
2022-11-05T12:05:05.866Z,100106.53
2022-11-05T12:07:39.463Z,100107.75
2022-11-05T12:10:19.126Z,100103.84
2022-11-05T12:13:25.709Z,100096.31
2022-11-05T12:15:54.816Z,100105.37
2022-11-05T12:18:49.210Z,100106.66
2022-11-05T12:21:52.104Z,100104.09
2022-11-05T12:24:41.675Z,100108.44
2022-11-05T12:27:22.327Z,100109.31
2022-11-05T12:29:59.204Z,100109.22
2022-11-05T12:32:33.382Z,100110.00
2022-11-05T12:35:21.036Z,100118.41
2022-11-05T12:38:22.869Z,100122.03
2022-11-05T12:41:15.327Z,100119.75
2022-11-05T12:44:00.400Z,100131.19
2022-11-05T12:46:38.739Z,100117.03
2022-11-05T12:49:30.979Z,100113.50
2022-11-05T12:52:27.738Z,100117.72
2022-11-05T12:55:12.045Z,100112.47
2022-11-05T12:57:42.048Z,100113.16
2022-11-05T13:00:24.339Z,100111.53
2022-11-05T13:02:56.704Z,100116.34
2022-11-05T13:05:34.889Z,100109.34
2022-11-05T13:08:13.582Z,100090.06
2022-11-05T13:10:45.792Z,100110.44
2022-11-05T13:13:24.388Z,100105.88
2022-11-05T13:15:55.571Z,100117.22
2022-11-05T13:18:50.053Z,100115.03
2022-11-05T13:21:19.815Z,100121.41
2022-11-05T13:24:00.332Z,100116.88
2022-11-05T13:26:35.664Z,100122.34
2022-11-05T13:29:07.085Z,100123.94
2022-11-05T13:31:39.129Z,100126.13
2022-11-05T13:34:11.394Z,100118.22
2022-11-05T13:37:11.447Z,100118.91
2022-11-05T13:39:46.515Z,100128.25
2022-11-05T13:42:26.634Z,100120.78
2022-11-05T13:45:03.314Z,100124.87
2022-11-05T13:48:13.163Z,100126.72
2022-11-05T13:51:03.707Z,100143.38
2022-11-05T13:53:56.398Z,100136.56
2022-11-05T13:56:33.158Z,100141.72
2022-11-05T13:59:16.220Z,100139.94
2022-11-05T14:01:54.034Z,100139.25
2022-11-05T14:04:34.222Z,100149.63
2022-11-05T14:07:24.022Z,100138.66
2022-11-05T14:10:31.579Z,100160.03
2022-11-05T14:13:02.001Z,100145.69
2022-11-05T14:15:30.447Z,100160.03
2022-11-05T14:18:37.036Z,100159.44
2022-11-05T14:21:10.922Z,100156.50
2022-11-05T14:23:40.690Z,100166.09
2022-11-05T14:26:17.758Z,100145.69
2022-11-05T14:28:50.594Z,100159.19
2022-11-05T14:31:18.304Z,100161.81
2022-11-05T14:33:55.028Z,100164.53
2022-11-05T14:36:30.175Z,100169.88
2022-11-05T14:39:30.171Z,100173.44
2022-11-05T14:42:12.373Z,100183.94
2022-11-05T14:44:58.196Z,100180.47
2022-11-05T14:47:31.753Z,100174.75
2022-11-05T14:50:07.017Z,100185.81
2022-11-05T14:52:35.307Z,100175.00
2022-11-05T14:55:02.954Z,100193.00
2022-11-05T14:57:57.043Z,100188.75
2022-11-05T15:00:46.145Z,100188.06
2022-11-05T15:03:46.030Z,100180.25
2022-11-05T15:06:25.272Z,100174.16
2022-11-05T15:08:57.504Z,100176.94
2022-11-05T15:11:40.107Z,100173.47
2022-11-05T15:14:16.338Z,100189.37
2022-11-05T15:16:49.063Z,100204.91
2022-11-05T15:19:24.650Z,100205.22
2022-11-05T15:21:54.184Z,100208.84
2022-11-05T15:24:21.908Z,100190.91
2022-11-05T15:26:49.456Z,100201.06
2022-11-05T15:29:19.908Z,100189.13
2022-11-05T15:31:49.132Z,100202.66
2022-11-05T15:34:21.816Z,100211.56
2022-11-05T15:37:00.878Z,100213.50
2022-11-05T15:39:43.171Z,100213.50
2022-11-05T15:42:14.942Z,100202.47
2022-11-05T15:44:47.867Z,100221.38
2022-11-05T15:47:19.963Z,100234.72
2022-11-05T15:49:59.121Z,100217.63
2022-11-05T15:52:42.229Z,100225.06
2022-11-05T15:55:19.143Z,100231.53
2022-11-05T15:57:51.002Z,100226.87
2022-11-05T16:00:25.136Z,100239.12
2022-11-05T16:03:05.086Z,100239.19
2022-11-05T16:05:34.912Z,100239.19
2022-11-05T16:08:05.258Z,100227.44
2022-11-05T16:10:35.539Z,100250.63
2022-11-05T16:13:33.174Z,100252.53
2022-11-05T16:16:33.470Z,100256.00
2022-11-05T16:19:01.599Z,100254.41
2022-11-05T16:21:29.157Z,100259.56
2022-11-05T16:24:00.355Z,100261.41
2022-11-05T16:27:00.653Z,100271.88
2022-11-05T16:29:22.786Z,100266.53
2022-11-05T16:31:53.006Z,100258.31
2022-11-05T16:34:41.864Z,100274.50
2022-11-05T16:37:13.410Z,100284.91
2022-11-05T16:39:41.007Z,100286.78
2022-11-05T16:42:22.841Z,100283.31
2022-11-05T16:44:51.474Z,100279.97
2022-11-05T16:47:19.880Z,100268.28
2022-11-05T16:49:48.561Z,100282.44
2022-11-05T16:52:16.430Z,100286.91
2022-11-05T16:54:44.425Z,100281.81
2022-11-05T16:57:23.315Z,100288.75
2022-11-05T16:59:53.548Z,100294.87
2022-11-05T17:02:21.502Z,100295.09
2022-11-05T17:04:59.769Z,100284.09
2022-11-05T17:07:27.624Z,100301.87
2022-11-05T17:09:56.063Z,100310.78
2022-11-05T17:12:23.545Z,100305.53
2022-11-05T17:14:51.414Z,100304.69
2022-11-05T17:17:19.019Z,100305.75
2022-11-05T17:19:47.090Z,100300.50
2022-11-05T17:22:14.846Z,100298.00
2022-11-05T17:24:42.550Z,100297.38
2022-11-05T17:27:10.064Z,100298.00
2022-11-05T17:29:38.672Z,100300.72
2022-11-05T17:32:06.548Z,100316.41
2022-11-05T17:34:34.111Z,100310.44
2022-11-05T17:37:02.030Z,100317.47
2022-11-05T17:39:31.801Z,100320.00
2022-11-05T17:41:59.617Z,100320.31
2022-11-05T17:44:27.670Z,100331.53
2022-11-05T17:46:55.316Z,100315.41
2022-11-05T17:49:22.873Z,100335.22
2022-11-05T17:51:50.734Z,100332.66
2022-11-05T17:54:18.392Z,100330.81
2022-11-05T17:56:46.086Z,100328.19
2022-11-05T17:59:14.226Z,100326.62
2022-11-05T18:01:43.779Z,100316.19
2022-11-05T18:04:12.072Z,100318.97
2022-11-05T18:06:40.655Z,100321.59
2022-11-05T18:09:10.354Z,100303.69
2022-11-05T18:11:38.692Z,100316.41
2022-11-05T18:14:06.406Z,100322.44
2022-11-05T18:16:34.739Z,100323.38
2022-11-05T18:19:03.625Z,100328.81
2022-11-05T18:21:31.567Z,100328.75
2022-11-05T18:24:02.641Z,100329.59
2022-11-05T18:26:30.689Z,100318.47
2022-11-05T18:29:01.072Z,100317.47
2022-11-05T18:31:28.729Z,100315.91
2022-11-05T18:33:58.757Z,100325.28
2022-11-05T18:36:30.342Z,100333.28
2022-11-05T18:38:59.515Z,100336.69
2022-11-05T18:41:27.026Z,100341.87
2022-11-05T18:44:01.962Z,100334.84
2022-11-05T18:46:56.407Z,100344.44
2022-11-05T18:49:19.348Z,100338.41
2022-11-05T18:51:47.483Z,100318.53
2022-11-05T18:54:15.079Z,100340.03
2022-11-05T18:56:45.673Z,100337.47
2022-11-05T18:59:35.984Z,100339.41
2022-11-05T19:02:03.105Z,100338.19
2022-11-05T19:04:31.273Z,100354.88
2022-11-05T19:07:03.274Z,100347.12
2022-11-05T19:09:34.166Z,100346.13
2022-11-05T19:12:02.511Z,100348.84
2022-11-05T19:14:30.369Z,100356.78
2022-11-05T19:16:59.226Z,100353.38
2022-11-05T19:19:27.402Z,100363.88
2022-11-05T19:21:55.180Z,100362.94
2022-11-05T19:24:23.359Z,100351.88
2022-11-05T19:26:50.919Z,100370.78
2022-11-05T19:29:18.855Z,100379.63
2022-11-05T19:31:46.976Z,100376.16
2022-11-05T19:34:14.843Z,100390.00
2022-11-05T19:36:42.905Z,100396.00
2022-11-05T19:39:13.386Z,100389.34
2022-11-05T19:41:41.762Z,100390.00
2022-11-05T19:44:11.387Z,100393.37
2022-11-05T19:46:39.379Z,100398.72
2022-11-05T19:49:07.112Z,100405.75
2022-11-05T19:51:35.165Z,100407.44
2022-11-05T19:54:03.978Z,100406.47
2022-11-05T19:56:33.764Z,100412.69
2022-11-05T19:59:03.355Z,100414.56
2022-11-05T20:01:32.068Z,100419.81
2022-11-05T20:04:02.534Z,100432.06
2022-11-05T20:06:34.714Z,100423.47
2022-11-05T20:09:21.147Z,100438.19
2022-11-05T20:11:54.652Z,100430.44
2022-11-05T20:14:24.463Z,100427.81
2022-11-05T20:16:51.967Z,100434.84
2022-11-05T20:19:20.962Z,100432.25
2022-11-05T20:21:49.470Z,100440.97
2022-11-05T20:24:23.725Z,100442.91
2022-11-05T20:26:54.294Z,100429.31
2022-11-05T20:29:35.411Z,100449.91
2022-11-05T20:32:04.166Z,100451.78
2022-11-05T20:34:33.826Z,100443.97
2022-11-05T20:37:01.680Z,100448.34
2022-11-05T20:39:29.990Z,100434.00
2022-11-05T20:41:57.653Z,100445.19
2022-11-05T20:44:25.461Z,100452.03
2022-11-05T20:46:53.850Z,100442.44
2022-11-05T20:49:25.322Z,100434.25
2022-11-05T20:51:54.192Z,100448.75
2022-11-05T20:54:21.742Z,100451.56
2022-11-05T20:56:49.573Z,100451.66
2022-11-05T20:59:17.547Z,100431.97
2022-11-05T21:01:45.344Z,100462.06
2022-11-05T21:04:13.086Z,100461.44
2022-11-05T21:06:41.011Z,100459.66
2022-11-05T21:09:08.520Z,100455.19
2022-11-05T21:11:54.648Z,100441.81
2022-11-05T21:14:22.544Z,100451.91
2022-11-05T21:16:50.187Z,100454.53
2022-11-05T21:19:17.873Z,100459.91
2022-11-05T21:21:45.810Z,100449.88
2022-11-05T21:24:13.484Z,100445.47
2022-11-05T21:26:41.174Z,100456.59
2022-11-05T21:29:09.065Z,100459.19
2022-11-05T21:31:37.669Z,100458.41
2022-11-05T21:34:05.414Z,100458.47
2022-11-05T21:36:33.344Z,100452.38
2022-11-05T21:39:01.146Z,100461.09
2022-11-05T21:41:28.865Z,100460.25
2022-11-05T21:43:57.983Z,100464.78
2022-11-05T21:46:25.594Z,100452.75
2022-11-05T21:48:53.389Z,100467.19
2022-11-05T21:51:39.695Z,100467.25
2022-11-05T21:54:25.680Z,100468.25
2022-11-05T21:57:12.349Z,100468.03
2022-11-05T21:59:49.289Z,100474.13
2022-11-05T22:02:22.915Z,100473.38
2022-11-05T22:04:55.257Z,100476.03
2022-11-05T22:07:26.157Z,100478.47
2022-11-05T22:09:57.128Z,100485.44
2022-11-05T22:12:25.039Z,100487.19
2022-11-05T22:14:52.837Z,100485.47
2022-11-05T22:17:21.149Z,100494.22
2022-11-05T22:19:48.877Z,100498.69
2022-11-05T22:22:16.843Z,100500.19
2022-11-05T22:24:44.771Z,100506.28
2022-11-05T22:27:15.834Z,100507.94
2022-11-05T22:29:43.544Z,100501.87
2022-11-05T22:32:11.382Z,100501.00
2022-11-05T22:34:38.918Z,100495.78
2022-11-05T22:37:06.882Z,100488.84
2022-11-05T22:39:34.739Z,100492.69
2022-11-05T22:42:08.090Z,100497.56
2022-11-05T22:44:36.961Z,100488.91
2022-11-05T22:47:05.528Z,100492.25
2022-11-05T22:49:33.626Z,100491.47
2022-11-05T22:52:01.459Z,100470.06
2022-11-05T22:54:29.012Z,100490.53
2022-11-05T22:56:56.445Z,100495.78
2022-11-05T22:59:24.242Z,100502.59
2022-11-05T23:01:51.975Z,100501.72
2022-11-05T23:04:19.522Z,100499.25
2022-11-05T23:07:05.833Z,100501.75
2022-11-05T23:09:53.749Z,100485.56
2022-11-05T23:12:43.636Z,100511.16
2022-11-05T23:15:31.145Z,100512.91
2022-11-05T23:18:17.613Z,100510.25
2022-11-05T23:21:03.820Z,100515.41
2022-11-05T23:23:50.124Z,100512.13
2022-11-05T23:26:36.052Z,100507.75
2022-11-05T23:29:04.319Z,100509.44
2022-11-05T23:31:50.128Z,100508.47
2022-11-05T23:34:17.944Z,100499.78
2022-11-05T23:37:03.696Z,100497.03
2022-11-05T23:39:32.359Z,100497.97
2022-11-05T23:42:18.540Z,100487.91
2022-11-05T23:45:04.886Z,100497.25
2022-11-05T23:47:51.085Z,100486.94
2022-11-05T23:50:18.976Z,100508.53
2022-11-05T23:52:46.554Z,100501.37
2022-11-05T23:55:14.039Z,100506.50
2022-11-05T23:57:41.914Z,100500.31
